Time;durP1;ratioP1;P1;durP2;ratioP2;P2;SDS_P1;SDS_P2;PMS_P1;PMS_P2;Temp;Humidity;BMP_temperature;BMP_pressure;BME280_temperature;BME280_humidity;BME280_pressure;Samples;Min_cycle;Max_cycle;Signal;HPM_P1;HPM_P2
2021/12/31 00:00:56;;;;;;;6.83;2.00;;;;;13.60;101394.00;;;;10536905;28;20250;-77
2021/12/31 00:05:58;;;;;;;4.73;2.27;;;;;13.60;101395.00;;;;10532968;28;20196;-77
2021/12/31 00:11:01;;;;;;;7.43;2.37;;;;;13.50;101389.00;;;;10562905;27;20212;-78
2021/12/31 00:16:04;;;;;;;6.40;2.20;;;;;13.50;101381.00;;;;10519855;28;20254;-78
2021/12/31 00:21:06;;;;;;;7.37;2.13;;;;;13.60;101389.00;;;;10536030;28;20609;-77
2021/12/31 00:26:08;;;;;;;9.57;1.80;;;;;13.60;101392.00;;;;10523693;28;20238;-77
2021/12/31 00:31:10;;;;;;;6.17;2.00;;;;;13.60;101387.00;;;;10509859;28;20209;-77
2021/12/31 00:36:12;;;;;;;8.87;2.20;;;;;13.60;101390.00;;;;10526639;28;20254;-77
2021/12/31 00:41:14;;;;;;;4.47;2.10;;;;;13.50;101397.00;;;;10525645;28;20643;-77
2021/12/31 00:46:16;;;;;;;5.40;1.80;;;;;13.50;101406.00;;;;10525485;28;20242;-78
2021/12/31 00:51:18;;;;;;;3.37;1.70;;;;;13.50;101401.00;;;;10509035;28;20213;-78
2021/12/31 00:56:19;;;;;;;5.90;2.07;;;;;13.50;101400.00;;;;10501033;28;20189;-77
2021/12/31 01:01:23;;;;;;;3.97;1.97;;;;;13.50;101396.00;;;;10509622;28;20251;-77
2021/12/31 01:06:26;;;;;;;4.77;2.07;;;;;13.50;101386.00;;;;10551076;28;20191;-77
2021/12/31 01:11:28;;;;;;;5.90;2.40;;;;;13.50;101383.00;;;;10534092;28;20219;-78
2021/12/31 01:16:39;;;;;;;6.93;2.10;;;;;13.50;101383.00;;;;10529362;28;20557;-77
2021/12/31 01:21:42;;;;;;;5.23;2.33;;;;;13.50;101385.00;;;;10499340;28;20538;-77
2021/12/31 01:26:45;;;;;;;7.13;2.03;;;;;13.50;101382.00;;;;10525686;28;20594;-77
2021/12/31 01:31:50;;;;;;;8.93;2.20;;;;;13.40;101380.00;;;;10544955;28;20204;-77
2021/12/31 01:36:52;;;;;;;9.20;2.23;;;;;13.30;101384.00;;;;10533902;28;20217;-77
2021/12/31 01:41:58;;;;;;;4.27;2.20;;;;;13.30;101382.00;;;;10573088;27;20227;-77
2021/12/31 01:47:05;;;;;;;7.13;2.80;;;;;13.30;101379.00;;;;10542732;28;20972;-77
2021/12/31 01:52:09;;;;;;;8.47;2.37;;;;;13.30;101379.00;;;;10516129;28;20211;-77
2021/12/31 01:57:11;;;;;;;6.03;2.30;;;;;13.30;101383.00;;;;10532647;28;20204;-77
2021/12/31 02:02:14;;;;;;;8.13;2.43;;;;;13.20;101388.00;;;;10514549;28;20247;-80
2021/12/31 02:07:16;;;;;;;4.97;2.13;;;;;13.10;101390.00;;;;10530367;28;20213;-80
2021/12/31 02:12:17;;;;;;;4.80;2.47;;;;;13.00;101391.00;;;;10548502;28;20211;-80
2021/12/31 02:17:20;;;;;;;5.97;2.23;;;;;12.80;101385.00;;;;10532676;28;20184;-80
2021/12/31 02:22:27;;;;;;;7.27;2.70;;;;;12.70;101386.00;;;;10548314;28;20306;-80
2021/12/31 02:27:29;;;;;;;10.27;2.57;;;;;12.60;101380.00;;;;10528084;28;20262;-80
2021/12/31 02:32:32;;;;;;;10.70;3.50;;;;;12.50;101386.00;;;;10531222;28;20575;-80
2021/12/31 02:37:34;;;;;;;12.40;3.20;;;;;12.50;101386.00;;;;10511466;28;20223;-80
2021/12/31 02:42:36;;;;;;;12.13;2.70;;;;;12.40;101364.00;;;;10512256;28;20242;-80
2021/12/31 02:47:44;;;;;;;8.00;3.10;;;;;12.40;101383.00;;;;10547338;28;20196;-80
2021/12/31 02:52:47;;;;;;;9.50;3.27;;;;;12.40;101382.00;;;;10546751;28;20207;-80
2021/12/31 02:57:49;;;;;;;11.00;3.00;;;;;12.50;101375.00;;;;10505578;28;20245;-80
2021/12/31 03:02:52;;;;;;;6.03;2.77;;;;;12.40;101367.00;;;;10506501;28;20195;-80
2021/12/31 03:07:56;;;;;;;5.77;3.20;;;;;12.30;101361.00;;;;10532646;28;20244;-80
2021/12/31 03:12:58;;;;;;;8.03;3.27;;;;;12.20;101362.00;;;;10538874;28;20208;-80
2021/12/31 03:18:03;;;;;;;8.60;3.53;;;;;12.10;101344.00;;;;10538402;28;20203;-80
2021/12/31 03:23:06;;;;;;;10.03;3.90;;;;;12.00;101350.00;;;;10521315;28;20605;-80
2021/12/31 03:28:07;;;;;;;7.77;3.43;;;;;11.90;101339.00;;;;10538850;28;20258;-80
2021/12/31 03:33:09;;;;;;;6.03;3.50;;;;;11.80;101344.00;;;;10571278;28;20203;-80
2021/12/31 03:38:12;;;;;;;9.03;3.17;;;;;11.80;101333.00;;;;10529400;27;20245;-81
2021/12/31 03:43:14;;;;;;;7.00;3.10;;;;;11.70;101327.00;;;;10582081;27;20313;-80
2021/12/31 03:48:17;;;;;;;5.87;2.90;;;;;11.70;101329.00;;;;10538205;28;20276;-80
2021/12/31 03:53:19;;;;;;;6.30;2.70;;;;;11.60;101319.00;;;;10520752;28;20262;-80
2021/12/31 03:58:21;;;;;;;8.23;2.77;;;;;11.60;101320.00;;;;10506699;28;20209;-80
2021/12/31 04:03:23;;;;;;;5.50;2.73;;;;;11.60;101323.00;;;;10492680;28;20644;-81
2021/12/31 04:08:25;;;;;;;10.87;3.27;;;;;11.50;101327.00;;;;10521657;27;20254;-80
2021/12/31 04:13:27;;;;;;;7.27;3.00;;;;;11.50;101340.00;;;;10519734;28;20699;-80
2021/12/31 04:18:29;;;;;;;7.30;2.50;;;;;11.40;101344.00;;;;10519109;28;20246;-80
2021/12/31 04:23:34;;;;;;;8.33;2.63;;;;;11.40;101350.00;;;;10536154;28;20211;-80
2021/12/31 04:28:36;;;;;;;4.60;2.30;;;;;11.40;101325.00;;;;10536814;27;20188;-80
2021/12/31 04:33:38;;;;;;;7.23;2.33;;;;;11.30;101322.00;;;;10511505;28;20216;-80
2021/12/31 04:38:40;;;;;;;9.03;2.90;;;;;11.30;101318.00;;;;10534790;28;20188;-80
2021/12/31 04:43:42;;;;;;;8.50;2.50;;;;;11.20;101328.00;;;;10551712;28;20192;-80
2021/12/31 04:48:44;;;;;;;7.13;2.70;;;;;11.20;101344.00;;;;10535493;28;20192;-80
2021/12/31 04:53:46;;;;;;;6.93;2.80;;;;;11.20;101337.00;;;;10509461;28;20200;-80
2021/12/31 04:58:48;;;;;;;5.20;2.40;;;;;11.20;101325.00;;;;10510242;28;20201;-80
2021/12/31 05:03:50;;;;;;;9.07;3.00;;;;;11.20;101319.00;;;;10544414;28;20188;-80
2021/12/31 05:08:52;;;;;;;4.97;2.30;;;;;11.20;101316.00;;;;10551042;28;20196;-80
2021/12/31 05:13:54;;;;;;;5.07;2.60;;;;;11.10;101316.00;;;;10551016;28;20234;-80
2021/12/31 05:18:56;;;;;;;8.87;3.57;;;;;11.10;101308.00;;;;10534138;28;20621;-80
2021/12/31 05:23:58;;;;;;;6.70;2.90;;;;;11.00;101299.00;;;;10541636;28;20201;-80
2021/12/31 05:29:02;;;;;;;3.57;2.30;;;;;11.00;101303.00;;;;10543589;28;20209;-80
2021/12/31 05:34:04;;;;;;;7.20;2.40;;;;;11.00;101298.00;;;;10550205;28;20307;-80
2021/12/31 05:39:06;;;;;;;7.30;2.70;;;;;11.00;101286.00;;;;10533204;28;20249;-80
2021/12/31 05:44:08;;;;;;;9.83;2.90;;;;;11.00;101288.00;;;;10526266;28;20230;-80
2021/12/31 05:49:10;;;;;;;9.07;2.50;;;;;11.10;101291.00;;;;10549726;28;21093;-80
2021/12/31 05:54:12;;;;;;;3.80;2.40;;;;;11.20;101284.00;;;;10549174;28;20208;-80
2021/12/31 05:59:14;;;;;;;3.07;1.90;;;;;11.20;101272.00;;;;10549337;28;20196;-81
2021/12/31 06:04:20;;;;;;;5.47;2.07;;;;;11.20;101268.00;;;;10490930;28;20261;-80
2021/12/31 06:09:22;;;;;;;3.23;1.80;;;;;11.30;101274.00;;;;10547747;28;20199;-80
2021/12/31 06:14:24;;;;;;;5.73;1.67;;;;;11.40;101278.00;;;;10523327;28;20250;-80
2021/12/31 06:19:27;;;;;;;3.90;2.07;;;;;11.50;101261.00;;;;10523751;28;20203;-80
2021/12/31 06:24:29;;;;;;;2.63;1.90;;;;;11.50;101263.00;;;;10528226;28;20239;-80
2021/12/31 06:29:31;;;;;;;5.50;2.10;;;;;11.50;101264.00;;;;10548859;28;20203;-81
2021/12/31 06:34:33;;;;;;;3.47;1.60;;;;;11.40;101276.00;;;;10550059;28;20212;-80
2021/12/31 06:39:36;;;;;;;3.83;1.80;;;;;11.40;101287.00;;;;10531833;28;20191;-80
2021/12/31 06:44:39;;;;;;;3.43;1.50;;;;;11.40;101283.00;;;;10562762;28;20184;-80
2021/12/31 06:49:42;;;;;;;2.17;1.50;;;;;11.50;101291.00;;;;10548114;28;20192;-80
2021/12/31 06:54:44;;;;;;;5.30;1.93;;;;;11.60;101290.00;;;;10547180;28;20250;-80
2021/12/31 06:59:45;;;;;;;3.83;1.70;;;;;11.60;101291.00;;;;10547267;28;20196;-80
2021/12/31 07:04:47;;;;;;;1.63;1.50;;;;;11.70;101300.00;;;;10529795;28;20188;-80
2021/12/31 07:09:49;;;;;;;4.20;2.30;;;;;11.70;101297.00;;;;10561307;28;20656;-80
2021/12/31 07:14:51;;;;;;;2.23;1.53;;;;;11.70;101310.00;;;;10529767;28;20269;-80
2021/12/31 07:19:53;;;;;;;2.07;1.63;;;;;11.70;101311.00;;;;10546569;28;20252;-80
2021/12/31 07:24:56;;;;;;;4.00;2.00;;;;;11.70;101310.00;;;;10534373;28;20222;-80
2021/12/31 07:29:58;;;;;;;6.73;2.27;;;;;11.80;101309.00;;;;10539324;28;20645;-80
2021/12/31 07:35:00;;;;;;;5.47;2.00;;;;;11.80;101301.00;;;;10527995;28;20286;-80
2021/12/31 07:40:05;;;;;;;5.57;1.90;;;;;11.70;101307.00;;;;10547406;28;20188;-80
2021/12/31 07:45:07;;;;;;;3.50;1.57;;;;;11.60;101304.00;;;;10564210;28;20249;-80
2021/12/31 07:50:09;;;;;;;2.23;1.73;;;;;11.50;101306.00;;;;10530680;28;20281;-80
2021/12/31 07:55:11;;;;;;;2.80;2.20;;;;;11.40;101323.00;;;;10534788;28;20660;-80
2021/12/31 08:00:13;;;;;;;2.97;1.73;;;;;11.40;101325.00;;;;10493558;28;20211;-80
2021/12/31 08:05:16;;;;;;;5.73;1.70;;;;;11.50;101339.00;;;;10542742;28;20192;-79
2021/12/31 08:10:19;;;;;;;4.17;1.47;;;;;11.70;101328.00;;;;10543646;28;20200;-80
2021/12/31 08:15:41;;;;;;;3.43;1.87;;;;;11.80;101334.00;;;;10548101;28;20289;-79
2021/12/31 08:20:43;;;;;;;3.20;1.70;;;;;11.90;101342.00;;;;10555210;28;20584;-79
2021/12/31 08:25:45;;;;;;;6.40;2.33;;;;;11.90;101339.00;;;;10567290;27;20188;-79
2021/12/31 08:30:47;;;;;;;4.43;1.80;;;;;12.00;101359.00;;;;10561564;27;20185;-79
2021/12/31 08:35:49;;;;;;;4.43;1.70;;;;;12.10;101347.00;;;;10541862;27;20247;-79
2021/12/31 08:40:52;;;;;;;2.23;1.60;;;;;12.20;101337.00;;;;10534976;28;20668;-79
2021/12/31 08:45:58;;;;;;;5.60;1.77;;;;;12.30;101324.00;;;;10552848;27;20192;-79
2021/12/31 08:51:03;;;;;;;3.87;2.20;;;;;12.30;101312.00;;;;10516406;28;20204;-79
2021/12/31 08:56:06;;;;;;;3.47;1.57;;;;;12.30;101307.00;;;;10558275;27;20765;-79
2021/12/31 09:01:08;;;;;;;3.37;1.43;;;;;12.30;101304.00;;;;10550829;27;20601;-79
2021/12/31 09:06:11;;;;;;;3.20;1.57;;;;;12.30;101295.00;;;;10532158;27;20196;-80
2021/12/31 09:11:15;;;;;;;3.90;1.80;;;;;12.30;101328.00;;;;10515834;27;20199;-79
2021/12/31 09:16:17;;;;;;;2.33;1.57;;;;;12.30;101348.00;;;;10564477;27;20201;-79
2021/12/31 09:21:20;;;;;;;4.40;2.00;;;;;12.30;101373.00;;;;10535602;28;20215;-79
2021/12/31 09:26:22;;;;;;;3.80;2.43;;;;;12.40;101384.00;;;;10513429;28;20196;-79
2021/12/31 09:31:24;;;;;;;2.43;2.10;;;;;12.60;101364.00;;;;10545139;28;20199;-79
2021/12/31 09:36:26;;;;;;;2.50;1.90;;;;;12.70;101364.00;;;;10531069;28;20227;-79
2021/12/31 09:41:30;;;;;;;4.07;2.10;;;;;12.70;101394.00;;;;10517903;28;20193;-79
2021/12/31 09:46:34;;;;;;;3.20;1.80;;;;;12.60;101388.00;;;;10522198;28;20541;-79
2021/12/31 09:51:41;;;;;;;4.13;2.20;;;;;12.50;101365.00;;;;10533483;28;20253;-79
2021/12/31 09:56:43;;;;;;;4.90;2.23;;;;;12.50;101374.00;;;;10519205;28;20185;-79
2021/12/31 10:01:47;;;;;;;3.13;1.83;;;;;12.60;101404.00;;;;10540178;27;20234;-80
2021/12/31 10:07:08;;;;;;;4.20;1.90;;;;;12.70;101392.00;;;;10535878;28;20192;-78
2021/12/31 10:12:10;;;;;;;3.10;1.83;;;;;13.00;101407.00;;;;10519249;28;20216;-79
2021/12/31 10:17:32;;;;;;;5.37;1.70;;;;;13.20;101411.00;;;;10556735;27;20184;-79
2021/12/31 10:22:34;;;;;;;2.53;2.00;;;;;13.80;101403.00;;;;10540243;28;20256;-79
2021/12/31 10:27:36;;;;;;;3.40;2.20;;;;;14.40;101398.00;;;;10514249;28;20181;-79
2021/12/31 10:32:46;;;;;;;3.17;1.75;;;;;14.70;101403.00;;;;10510690;27;20295;-79
2021/12/31 10:37:52;;;;;;;2.58;2.10;;;;;15.90;101377.00;;;;10519665;28;20212;-79
2021/12/31 10:43:17;;;;;;;2.78;1.42;;;;;16.30;101367.00;;;;10526292;28;20189;-79
2021/12/31 10:48:20;;;;;;;12.20;1.90;;;;;16.10;101379.00;;;;10521268;28;20192;-79
2021/12/31 10:53:33;;;;;;;2.65;1.48;;;;;15.70;101392.00;;;;10544131;28;20271;-78
2021/12/31 10:58:37;;;;;;;3.17;1.45;;;;;15.30;101416.00;;;;10543561;28;20307;-79
2021/12/31 11:03:40;;;;;;;3.97;1.75;;;;;15.60;101410.00;;;;10567667;28;20200;-79
2021/12/31 11:08:49;;;;;;;4.30;1.90;;;;;15.70;101400.00;;;;10494162;28;20236;-79
2021/12/31 11:13:51;;;;;;;3.40;1.90;;;;;15.50;101406.00;;;;10533263;28;20203;-80
2021/12/31 11:18:55;;;;;;;6.60;1.75;;;;;15.40;101391.00;;;;10503324;28;20257;-79
2021/12/31 11:24:30;;;;;;;3.78;1.63;;;;;15.90;101391.00;;;;10512363;28;20201;-79
2021/12/31 11:29:38;;;;;;;3.05;1.90;;;;;15.60;101384.00;;;;10538978;28;20237;-79
2021/12/31 11:34:40;;;;;;;4.15;2.03;;;;;15.60;101396.00;;;;10529861;28;20239;-79
2021/12/31 11:39:42;;;;;;;3.88;1.90;;;;;15.70;101377.00;;;;10566135;27;20227;-79
2021/12/31 11:45:07;;;;;;;3.08;1.85;;;;;16.00;101359.00;;;;10568706;27;20658;-79
2021/12/31 11:50:24;;;;;;;4.78;2.00;;;;;15.80;101309.00;;;;10560006;27;20257;-80
2021/12/31 11:55:27;;;;;;;2.60;1.48;;;;;16.20;101288.00;;;;10536179;28;20228;-79
2021/12/31 12:00:29;;;;;;;3.53;2.05;;;;;17.00;101320.00;;;;10530770;28;20188;-80
2021/12/31 12:05:41;;;;;;;4.30;1.80;;;;;17.10;101312.00;;;;10529435;28;20216;-79
2021/12/31 12:10:43;;;;;;;2.30;1.67;;;;;16.10;101316.00;;;;10536752;27;20202;-80
2021/12/31 12:15:46;;;;;;;3.00;1.70;;;;;15.70;101308.00;;;;10537431;28;20205;-79
2021/12/31 12:20:50;;;;;;;6.10;2.30;;;;;16.20;101312.00;;;;10518506;28;20203;-79
2021/12/31 12:25:52;;;;;;;3.75;1.58;;;;;16.40;101288.00;;;;10526490;28;20679;-79
2021/12/31 12:31:04;;;;;;;4.65;1.85;;;;;16.30;101307.00;;;;10518764;28;20275;-79
2021/12/31 12:36:07;;;;;;;6.15;2.10;;;;;16.60;101331.00;;;;10493284;28;20707;-79
2021/12/31 12:41:10;;;;;;;5.50;2.10;;;;;16.80;101362.00;;;;10558313;27;20192;-79
2021/12/31 12:46:14;;;;;;;2.88;1.85;;;;;16.70;101372.00;;;;10531993;28;20224;-80
2021/12/31 12:51:25;;;;;;;2.65;1.73;;;;;16.40;101364.00;;;;10508755;28;20193;-79
2021/12/31 12:56:27;;;;;;;6.03;1.98;;;;;15.70;101375.00;;;;10510043;28;20204;-79
2021/12/31 13:01:41;;;;;;;3.42;2.13;;;;;15.70;101376.00;;;;10508412;28;20200;-78
2021/12/31 13:07:02;;;;;;;4.35;2.90;;;;;15.70;101369.00;;;;10524489;28;20556;-79
2021/12/31 13:12:07;;;;;;;6.30;2.70;;;;;15.70;101361.00;;;;10596946;27;20196;-80
2021/12/31 13:17:09;;;;;;;5.07;2.78;;;;;15.70;101374.00;;;;10510076;28;20197;-79
2021/12/31 13:22:11;;;;;;;5.28;2.60;;;;;15.80;101372.00;;;;10523288;28;20211;-79
2021/12/31 13:27:18;;;;;;;6.53;3.00;;;;;15.40;101373.00;;;;10510725;28;20184;-79
2021/12/31 13:32:22;;;;;;;5.38;2.80;;;;;15.30;101372.00;;;;10526978;28;20216;-79
2021/12/31 13:37:40;;;;;;;6.35;2.58;;;;;15.60;101371.00;;;;10527571;27;20290;-78
2021/12/31 13:42:44;;;;;;;4.65;2.72;;;;;15.70;101377.00;;;;10549302;27;20660;-78
2021/12/31 13:47:47;;;;;;;6.93;2.67;;;;;15.50;101397.00;;;;10488984;28;20200;-78
2021/12/31 13:52:52;;;;;;;5.90;3.03;;;;;15.20;101421.00;;;;10489502;28;20643;-78
2021/12/31 13:58:00;;;;;;;4.70;2.75;;;;;15.10;101443.00;;;;10505346;28;20246;-79
2021/12/31 14:03:15;;;;;;;5.43;2.75;;;;;15.00;101442.00;;;;10505527;28;20227;-78
2021/12/31 14:09:04;;;;;;;5.20;3.15;;;;;14.80;101444.00;;;;10505168;28;20199;-78
2021/12/31 14:13:43;;;;;;;5.35;2.63;;;;;14.60;101459.00;;;;10508490;28;20266;-78
2021/12/31 14:18:45;;;;;;;8.88;3.40;;;;;14.40;101480.00;;;;10505511;28;20287;-78
2021/12/31 14:23:48;;;;;;;5.32;3.10;;;;;14.30;101465.00;;;;10522088;28;20189;-78
2021/12/31 14:28:50;;;;;;;6.82;3.38;;;;;14.10;101474.00;;;;10504642;28;20333;-78
2021/12/31 14:33:52;;;;;;;7.72;4.07;;;;;13.80;101475.00;;;;10530077;28;20695;-78
2021/12/31 14:39:19;;;;;;;4.97;2.88;;;;;13.70;101468.00;;;;10539016;28;20200;-79
2021/12/31 14:44:22;;;;;;;10.05;3.67;;;;;13.60;101467.00;;;;10525840;28;20746;-78
2021/12/31 14:49:28;;;;;;;7.23;3.30;;;;;13.50;101473.00;;;;10498407;28;20625;-78
2021/12/31 14:54:31;;;;;;;5.88;3.22;;;;;13.40;101485.00;;;;10487497;28;20201;-78
2021/12/31 14:59:35;;;;;;;6.87;3.80;;;;;13.30;101482.00;;;;10490193;28;20203;-78
2021/12/31 15:04:37;;;;;;;8.13;4.03;;;;;13.30;101493.00;;;;10524190;28;20199;-78
2021/12/31 15:09:39;;;;;;;7.43;4.35;;;;;13.20;101494.00;;;;10554807;27;20199;-78
2021/12/31 15:14:40;;;;;;;8.60;4.13;;;;;13.20;101497.00;;;;10596610;27;20662;-78
2021/12/31 15:19:42;;;;;;;7.20;4.43;;;;;13.20;101513.00;;;;10596776;27;20195;-78
2021/12/31 15:24:44;;;;;;;6.57;4.60;;;;;13.20;101532.00;;;;10579363;27;20666;-78
2021/12/31 15:29:51;;;;;;;11.47;5.50;;;;;13.20;101533.00;;;;10562357;27;20213;-78
2021/12/31 15:34:54;;;;;;;9.03;6.23;;;;;13.20;101526.00;;;;10533363;28;20236;-78
2021/12/31 15:39:56;;;;;;;8.77;5.33;;;;;13.10;101521.00;;;;10536039;28;20237;-78
2021/12/31 15:44:58;;;;;;;8.77;5.30;;;;;13.10;101538.00;;;;10508080;27;20643;-78
2021/12/31 15:50:00;;;;;;;12.93;5.47;;;;;13.10;101544.00;;;;10578249;27;20287;-78
2021/12/31 15:55:05;;;;;;;8.83;5.70;;;;;13.00;101547.00;;;;10548865;28;20212;-78
2021/12/31 16:00:08;;;;;;;11.13;5.80;;;;;13.00;101555.00;;;;10591719;27;20233;-78
2021/12/31 16:05:15;;;;;;;10.13;6.33;;;;;12.90;101549.00;;;;10578223;27;20686;-78
2021/12/31 16:10:17;;;;;;;11.73;7.63;;;;;12.90;101551.00;;;;10578202;27;20250;-78
2021/12/31 16:15:20;;;;;;;11.33;8.13;;;;;12.80;101554.00;;;;10610972;27;20204;-78
2021/12/31 16:20:22;;;;;;;13.40;8.53;;;;;12.70;101556.00;;;;10593623;27;20191;-78
2021/12/31 16:25:24;;;;;;;11.77;8.63;;;;;12.70;101561.00;;;;10594273;27;20229;-78
2021/12/31 16:30:26;;;;;;;13.53;9.60;;;;;12.70;101570.00;;;;10576926;27;20188;-79
2021/12/31 16:35:28;;;;;;;12.03;9.90;;;;;12.60;101575.00;;;;10576902;27;20267;-79
2021/12/31 16:40:32;;;;;;;13.53;9.57;;;;;12.60;101567.00;;;;10536978;28;20200;-79
2021/12/31 16:45:34;;;;;;;15.60;9.87;;;;;12.60;101573.00;;;;10492594;28;20197;-79
2021/12/31 16:50:37;;;;;;;12.17;8.90;;;;;12.60;101571.00;;;;10475976;28;20193;-79
2021/12/31 16:55:39;;;;;;;13.23;10.10;;;;;12.50;101582.00;;;;10525592;28;20197;-79
2021/12/31 17:00:42;;;;;;;14.40;10.00;;;;;12.60;101591.00;;;;10551498;27;20600;-79
2021/12/31 17:05:44;;;;;;;14.13;10.40;;;;;12.60;101590.00;;;;10576109;27;20195;-79
2021/12/31 17:10:46;;;;;;;22.20;11.03;;;;;12.70;101591.00;;;;10592086;27;20191;-79
2021/12/31 17:15:50;;;;;;;13.33;9.80;;;;;12.70;101603.00;;;;10591932;27;20215;-79
2021/12/31 17:20:52;;;;;;;15.77;11.80;;;;;12.70;101625.00;;;;10575517;27;20191;-79
2021/12/31 17:25:54;;;;;;;20.90;12.07;;;;;12.80;101620.00;;;;10574399;27;20195;-79
2021/12/31 17:30:56;;;;;;;15.83;11.33;;;;;12.80;101633.00;;;;10574908;27;20195;-79
2021/12/31 17:35:58;;;;;;;20.83;11.37;;;;;12.80;101644.00;;;;10574732;27;20219;-78
2021/12/31 17:41:00;;;;;;;16.43;10.80;;;;;12.90;101645.00;;;;10574664;27;20296;-79
2021/12/31 17:46:03;;;;;;;15.00;11.17;;;;;12.90;101654.00;;;;10565512;27;20279;-78
2021/12/31 17:51:05;;;;;;;15.03;10.80;;;;;12.90;101666.00;;;;10548293;28;20211;-78
2021/12/31 17:56:09;;;;;;;22.87;12.63;;;;;12.90;101677.00;;;;10548249;28;20718;-79
2021/12/31 18:01:11;;;;;;;15.13;12.77;;;;;12.90;101676.00;;;;10564971;28;20188;-78
2021/12/31 18:06:13;;;;;;;14.70;11.57;;;;;12.90;101682.00;;;;10547884;28;20537;-78
2021/12/31 18:11:14;;;;;;;16.77;12.10;;;;;12.90;101684.00;;;;10549097;27;20195;-79
2021/12/31 18:16:17;;;;;;;17.43;12.27;;;;;12.90;101722.00;;;;10556050;27;20272;-79
2021/12/31 18:21:19;;;;;;;18.73;12.53;;;;;12.90;101724.00;;;;10589700;27;20340;-78
2021/12/31 18:26:21;;;;;;;23.47;11.80;;;;;12.90;101722.00;;;;10572502;27;20187;-78
2021/12/31 18:31:23;;;;;;;24.30;13.50;;;;;13.00;101737.00;;;;10567879;28;20246;-79
2021/12/31 18:36:25;;;;;;;23.23;12.67;;;;;13.00;101744.00;;;;10529589;28;20220;-78
2021/12/31 18:41:27;;;;;;;21.77;13.23;;;;;13.00;101744.00;;;;10582540;27;20210;-78
2021/12/31 18:46:30;;;;;;;27.23;13.43;;;;;13.00;101744.00;;;;10588665;27;20275;-78
2021/12/31 18:51:33;;;;;;;22.13;12.23;;;;;13.00;101762.00;;;;10571657;27;20191;-79
2021/12/31 18:56:35;;;;;;;21.27;13.40;;;;;12.90;101766.00;;;;10571492;27;20662;-78
2021/12/31 19:01:37;;;;;;;27.50;14.20;;;;;12.90;101764.00;;;;10589680;28;20198;-80
2021/12/31 19:06:40;;;;;;;21.87;12.87;;;;;12.80;101769.00;;;;10573367;28;20240;-81
2021/12/31 19:11:41;;;;;;;26.63;13.07;;;;;12.70;101771.00;;;;10573062;28;20651;-81
2021/12/31 19:16:43;;;;;;;24.40;13.20;;;;;12.70;101753.00;;;;10556381;28;20628;-81
2021/12/31 19:21:45;;;;;;;24.63;14.17;;;;;12.70;101771.00;;;;10555985;27;20264;-80
2021/12/31 19:26:47;;;;;;;26.97;15.53;;;;;12.70;101770.00;;;;10556307;28;20643;-80
2021/12/31 19:31:49;;;;;;;27.43;14.37;;;;;12.60;101757.00;;;;10555563;28;20651;-80
2021/12/31 19:36:51;;;;;;;26.43;14.33;;;;;12.60;101771.00;;;;10571679;28;20590;-80
2021/12/31 19:41:53;;;;;;;28.43;14.37;;;;;12.70;101777.00;;;;10504719;28;20197;-80
2021/12/31 19:46:55;;;;;;;27.03;13.93;;;;;12.70;101794.00;;;;10529887;28;20235;-80
2021/12/31 19:51:56;;;;;;;24.90;14.23;;;;;12.70;101795.00;;;;10509971;28;20219;-80
2021/12/31 19:56:58;;;;;;;28.80;14.30;;;;;12.70;101792.00;;;;10517898;27;20248;-80
2021/12/31 20:02:00;;;;;;;27.50;14.37;;;;;12.70;101788.00;;;;10595828;27;20331;-80
2021/12/31 20:07:02;;;;;;;24.53;14.40;;;;;12.70;101791.00;;;;10549620;27;20283;-80
2021/12/31 20:12:05;;;;;;;31.93;15.27;;;;;12.80;101780.00;;;;10520243;28;20197;-80
2021/12/31 20:17:07;;;;;;;35.80;17.17;;;;;12.80;101780.00;;;;10553084;28;20620;-80
2021/12/31 20:22:09;;;;;;;28.90;16.30;;;;;12.80;101796.00;;;;10535756;28;20204;-80
2021/12/31 20:27:11;;;;;;;31.77;16.43;;;;;12.80;101798.00;;;;10519886;28;20192;-80
2021/12/31 20:32:13;;;;;;;30.53;15.77;;;;;12.70;101802.00;;;;10537916;28;20184;-79
2021/12/31 20:37:16;;;;;;;29.07;15.77;;;;;12.80;101799.00;;;;10533752;28;20675;-80
2021/12/31 20:42:18;;;;;;;32.07;14.50;;;;;12.80;101805.00;;;;10534261;28;20192;-80
2021/12/31 20:47:20;;;;;;;27.80;14.97;;;;;12.80;101789.00;;;;10529770;28;20200;-79
2021/12/31 20:52:23;;;;;;;27.27;15.53;;;;;12.80;101805.00;;;;10551796;28;20659;-80
2021/12/31 20:57:25;;;;;;;39.00;16.20;;;;;12.80;101824.00;;;;10533669;28;20208;-79
2021/12/31 21:02:28;;;;;;;30.90;16.97;;;;;12.80;101822.00;;;;10549940;28;20192;-80
2021/12/31 21:07:30;;;;;;;22.90;16.27;;;;;12.80;101836.00;;;;10520523;27;20196;-79
2021/12/31 21:12:32;;;;;;;24.63;16.23;;;;;12.80;101845.00;;;;10559211;27;20192;-79
2021/12/31 21:17:34;;;;;;;29.30;15.77;;;;;12.90;101844.00;;;;10609320;27;20227;-79
2021/12/31 21:22:36;;;;;;;28.33;15.63;;;;;12.80;101850.00;;;;10575330;27;20591;-79
2021/12/31 21:27:39;;;;;;;21.70;14.60;;;;;12.80;101860.00;;;;10557170;27;20195;-79
2021/12/31 21:32:44;;;;;;;27.33;12.53;;;;;12.80;101857.00;;;;10556431;27;20196;-80
2021/12/31 21:37:47;;;;;;;28.90;14.43;;;;;12.90;101861.00;;;;10573932;27;20211;-79
2021/12/31 21:42:49;;;;;;;24.47;13.93;;;;;12.90;101863.00;;;;10591933;27;20585;-79
2021/12/31 21:47:51;;;;;;;25.07;12.67;;;;;12.90;101870.00;;;;10573950;27;20658;-79
2021/12/31 21:52:54;;;;;;;21.37;11.70;;;;;12.90;101857.00;;;;10574198;27;20195;-79
2021/12/31 21:57:56;;;;;;;20.23;11.40;;;;;12.90;101864.00;;;;10534918;27;20265;-79
2021/12/31 22:02:58;;;;;;;22.90;10.90;;;;;12.90;101870.00;;;;10531214;28;20196;-79
2021/12/31 22:08:00;;;;;;;19.73;10.30;;;;;12.90;101865.00;;;;10531605;28;20665;-79
2021/12/31 22:13:02;;;;;;;20.67;11.33;;;;;12.80;101858.00;;;;10547683;28;20767;-79
2021/12/31 22:18:05;;;;;;;23.63;12.10;;;;;12.90;101852.00;;;;10531796;28;20219;-79
2021/12/31 22:23:07;;;;;;;22.47;11.53;;;;;12.90;101852.00;;;;10514160;27;20334;-79
2021/12/31 22:28:09;;;;;;;22.60;12.77;;;;;12.80;101850.00;;;;10547572;28;20191;-79
2021/12/31 22:33:11;;;;;;;28.70;14.47;;;;;12.80;101855.00;;;;10514420;28;20196;-79
2021/12/31 22:38:13;;;;;;;29.07;14.80;;;;;12.70;101864.00;;;;10538558;27;20708;-79
2021/12/31 22:43:15;;;;;;;30.73;14.93;;;;;12.60;101879.00;;;;10571895;27;20203;-79
2021/12/31 22:48:17;;;;;;;22.30;14.30;;;;;12.60;101873.00;;;;10572368;27;20192;-79
2021/12/31 22:53:19;;;;;;;23.73;14.23;;;;;12.60;101874.00;;;;10571986;27;20192;-79
2021/12/31 22:58:22;;;;;;;24.17;14.20;;;;;12.60;101884.00;;;;10572223;27;20198;-79
2021/12/31 23:03:26;;;;;;;26.83;15.77;;;;;12.60;101876.00;;;;10570975;28;20204;-79
2021/12/31 23:08:28;;;;;;;22.43;14.53;;;;;12.60;101864.00;;;;10589450;28;20952;-79
2021/12/31 23:13:31;;;;;;;26.87;14.27;;;;;12.60;101877.00;;;;10605702;28;20184;-79
2021/12/31 23:18:39;;;;;;;29.33;14.17;;;;;12.70;101862.00;;;;10571719;28;20187;-79
2021/12/31 23:23:43;;;;;;;27.80;16.87;;;;;12.80;101876.00;;;;10588737;27;20194;-79
2021/12/31 23:28:45;;;;;;;24.70;16.77;;;;;12.80;101881.00;;;;10566854;27;20670;-79
2021/12/31 23:33:47;;;;;;;31.87;18.60;;;;;12.80;101890.00;;;;10554336;28;20212;-79
2021/12/31 23:38:51;;;;;;;32.70;19.83;;;;;12.80;101876.00;;;;10571082;28;20708;-79
2021/12/31 23:44:06;;;;;;;39.33;21.17;;;;;12.80;101884.00;;;;10553574;28;20250;-79
2021/12/31 23:49:08;;;;;;;32.77;18.93;;;;;12.80;101880.00;;;;10502215;28;20200;-79
2021/12/31 23:54:10;;;;;;;28.20;17.80;;;;;12.90;101881.00;;;;10527545;28;20251;-79
2021/12/31 23:59:12;;;;;;;27.30;16.57;;;;;12.90;101887.00;;;;10477636;28;20196;-79
